SWR4ZH LSZH-LGAV
Flight info
| Callsign | SWR4ZH |
|---|---|
| Flight time | 2h 7m |
| Altitude | 35000 |
| Route | DEGES Y170 ARGAX DCT RESIA DCT LABIN DCT ELGUS DCT AIOSA DCT XAPAT DCT NOSTO UN7 NEMES |
| Aircraft | B77W/H-SDE1E2E3FGHIJ2J3J4J5M1RWXY/LB1D1 |
Departure
| Time | 2026-05-05 19:48 |
|---|---|
| Airport | Zürich Airport (LSZH) |
Arrival
| Time | 2026-05-05 21:56 |
|---|---|
| Airport | Athens Eleftherios Venizelos International Airport (LGAV) |
| Time | Latitude | Longitude | Altitude | Speed | Heading |
|---|---|---|---|---|---|
| 2026-05-05 19:08 | 47.45182 | 8.55896 | 1390 ft | 0 kts | 187° |
| 2026-05-05 19:09 | 47.45183 | 8.55815 | 1390 ft | 0 kts | 187° |
| 2026-05-05 19:10 | 47.45178 | 8.55801 | 1390 ft | 0 kts | 187° |
| 2026-05-05 19:30 | 47.45186 | 8.55802 | 1390 ft | 2 kts | 191° |
| 2026-05-05 19:30 | 47.45200 | 8.55808 | 1390 ft | 2 kts | 204° |
| 2026-05-05 19:30 | 47.45214 | 8.55819 | 1390 ft | 2 kts | 215° |
| 2026-05-05 19:30 | 47.45226 | 8.55833 | 1390 ft | 2 kts | 225° |
| 2026-05-05 19:31 | 47.45235 | 8.55850 | 1390 ft | 2 kts | 236° |
| 2026-05-05 19:31 | 47.45242 | 8.55868 | 1390 ft | 2 kts | 246° |
| 2026-05-05 19:31 | 47.45248 | 8.55889 | 1390 ft | 2 kts | 257° |
| 2026-05-05 19:31 | 47.45250 | 8.55911 | 1390 ft | 2 kts | 268° |
| 2026-05-05 19:32 | 47.45250 | 8.55930 | 1390 ft | 0 kts | 276° |
| 2026-05-05 19:32 | 47.45250 | 8.55934 | 1390 ft | 0 kts | 277° |
| 2026-05-05 19:32 | 47.45250 | 8.55933 | 1390 ft | 0 kts | 277° |
| 2026-05-05 19:35 | 47.45251 | 8.55917 | 1390 ft | 2 kts | 277° |
| 2026-05-05 19:35 | 47.45254 | 8.55883 | 1390 ft | 4 kts | 277° |
| 2026-05-05 19:35 | 47.45258 | 8.55823 | 1390 ft | 8 kts | 275° |
| 2026-05-05 19:35 | 47.45264 | 8.55722 | 1390 ft | 10 kts | 276° |
| 2026-05-05 19:36 | 47.45273 | 8.55625 | 1390 ft | 8 kts | 285° |
| 2026-05-05 19:36 | 47.45307 | 8.55563 | 1390 ft | 8 kts | 326° |
| 2026-05-05 19:36 | 47.45382 | 8.55507 | 1390 ft | 14 kts | 334° |
| 2026-05-05 19:36 | 47.45475 | 8.55440 | 1390 ft | 14 kts | 335° |
| 2026-05-05 19:37 | 47.45558 | 8.55383 | 1390 ft | 12 kts | 335° |
| 2026-05-05 19:37 | 47.45631 | 8.55338 | 1390 ft | 8 kts | 349° |
| 2026-05-05 19:37 | 47.45662 | 8.55363 | 1390 ft | 5 kts | 65° |
| 2026-05-05 19:37 | 47.45667 | 8.55449 | 1390 ft | 10 kts | 95° |
| 2026-05-05 19:38 | 47.45658 | 8.55576 | 1390 ft | 13 kts | 96° |
| 2026-05-05 19:38 | 47.45647 | 8.55733 | 1390 ft | 16 kts | 97° |
| 2026-05-05 19:38 | 47.45633 | 8.55913 | 1390 ft | 18 kts | 95° |
| 2026-05-05 19:38 | 47.45622 | 8.56091 | 1390 ft | 16 kts | 96° |
| 2026-05-05 19:39 | 47.45617 | 8.56212 | 1390 ft | 5 kts | 79° |
| 2026-05-05 19:39 | 47.45618 | 8.56219 | 1390 ft | 0 kts | 72° |
| 2026-05-05 19:44 | 47.45618 | 8.56220 | 1390 ft | 0 kts | 72° |
| 2026-05-05 19:44 | 47.45626 | 8.56239 | 1390 ft | 3 kts | 49° |
| 2026-05-05 19:45 | 47.45661 | 8.56261 | 1388 ft | 9 kts | 14° |
| 2026-05-05 19:45 | 47.45741 | 8.56279 | 1387 ft | 12 kts | 6° |
| 2026-05-05 19:45 | 47.45813 | 8.56291 | 1390 ft | 9 kts | 7° |
| 2026-05-05 19:45 | 47.45880 | 8.56301 | 1390 ft | 9 kts | 6° |
| 2026-05-05 19:46 | 47.45939 | 8.56310 | 1390 ft | 8 kts | 6° |
| 2026-05-05 19:46 | 47.45991 | 8.56318 | 1390 ft | 6 kts | 6° |
| 2026-05-05 19:46 | 47.46037 | 8.56325 | 1390 ft | 6 kts | 6° |
| 2026-05-05 19:46 | 47.46075 | 8.56345 | 1391 ft | 4 kts | 34° |
| 2026-05-05 19:47 | 47.46098 | 8.56376 | 1391 ft | 4 kts | 44° |
| 2026-05-05 19:47 | 47.46128 | 8.56413 | 1392 ft | 5 kts | 21° |
| 2026-05-05 19:47 | 47.46158 | 8.56400 | 1392 ft | 5 kts | 320° |
| 2026-05-05 19:47 | 47.46229 | 8.56300 | 1392 ft | 32 kts | 317° |
| 2026-05-05 19:48 | 47.46569 | 8.55838 | 1391 ft | 100 kts | 317° |
| 2026-05-05 19:48 | 47.47239 | 8.54925 | 1390 ft | 160 kts | 318° |
| 2026-05-05 19:48 | 47.48186 | 8.53645 | 1517 ft | 200 kts | 317° |
| 2026-05-05 19:48 | 47.49238 | 8.52225 | 2020 ft | 207 kts | 310° |
| 2026-05-05 19:49 | 47.50032 | 8.50426 | 2269 ft | 218 kts | 304° |
| 2026-05-05 19:49 | 47.50587 | 8.49167 | 2556 ft | 220 kts | 292° |
| 2026-05-05 19:49 | 47.50941 | 8.46190 | 3085 ft | 224 kts | 274° |
| 2026-05-05 19:49 | 47.51039 | 8.43933 | 3714 ft | 218 kts | 265° |
| 2026-05-05 19:50 | 47.50374 | 8.41948 | 3696 ft | 234 kts | 224° |
| 2026-05-05 19:50 | 47.49238 | 8.40261 | 4352 ft | 226 kts | 226° |
| 2026-05-05 19:50 | 47.48233 | 8.38655 | 5195 ft | 210 kts | 230° |
| 2026-05-05 19:50 | 47.47296 | 8.36978 | 5540 ft | 216 kts | 233° |
| 2026-05-05 19:51 | 47.46193 | 8.35327 | 5361 ft | 243 kts | 203° |
| 2026-05-05 19:51 | 47.44487 | 8.34941 | 5129 ft | 256 kts | 173° |
| 2026-05-05 19:51 | 47.42794 | 8.35769 | 5703 ft | 257 kts | 150° |
| 2026-05-05 19:51 | 47.41491 | 8.37401 | 6516 ft | 250 kts | 130° |
| 2026-05-05 19:52 | 47.40609 | 8.39646 | 6957 ft | 259 kts | 112° |
| 2026-05-05 19:52 | 47.40210 | 8.42303 | 7271 ft | 273 kts | 95° |
| 2026-05-05 19:52 | 47.40303 | 8.45113 | 7869 ft | 273 kts | 81° |
| 2026-05-05 19:52 | 47.40799 | 8.47756 | 8448 ft | 273 kts | 72° |
| 2026-05-05 19:53 | 47.41359 | 8.50498 | 8645 ft | 286 kts | 85° |
| 2026-05-05 19:53 | 47.41299 | 8.53423 | 9105 ft | 285 kts | 102° |
| 2026-05-05 19:53 | 47.40811 | 8.56151 | 9964 ft | 271 kts | 109° |
| 2026-05-05 19:53 | 47.40510 | 8.58958 | 10143 ft | 288 kts | 92° |
| 2026-05-05 19:54 | 47.40522 | 8.62001 | 10276 ft | 306 kts | 91° |
| 2026-05-05 19:54 | 47.40566 | 8.65239 | 10414 ft | 323 kts | 91° |
| 2026-05-05 19:54 | 47.40613 | 8.68615 | 10576 ft | 339 kts | 91° |
| 2026-05-05 19:54 | 47.40662 | 8.72156 | 10768 ft | 353 kts | 91° |
| 2026-05-05 19:55 | 47.40712 | 8.75818 | 10956 ft | 367 kts | 91° |
| 2026-05-05 19:55 | 47.40764 | 8.79662 | 11132 ft | 381 kts | 91° |
| 2026-05-05 19:55 | 47.40817 | 8.83612 | 11456 ft | 389 kts | 91° |
| 2026-05-05 19:55 | 47.40869 | 8.87605 | 11913 ft | 394 kts | 91° |
| 2026-05-05 19:56 | 47.40921 | 8.91650 | 12428 ft | 395 kts | 91° |
| 2026-05-05 19:56 | 47.40973 | 8.95726 | 12881 ft | 398 kts | 91° |
| 2026-05-05 19:56 | 47.41020 | 8.99785 | 13273 ft | 403 kts | 92° |
| 2026-05-05 19:56 | 47.40803 | 9.03910 | 13726 ft | 404 kts | 102° |
| 2026-05-05 19:57 | 47.40105 | 9.07968 | 14115 ft | 405 kts | 111° |
| 2026-05-05 19:57 | 47.39398 | 9.10497 | 14398 ft | 405 kts | 118° |
| 2026-05-05 19:57 | 47.37403 | 9.15168 | 14953 ft | 405 kts | 131° |
| 2026-05-05 19:57 | 47.35487 | 9.18150 | 15372 ft | 404 kts | 141° |
| 2026-05-05 19:58 | 47.33250 | 9.20646 | 15780 ft | 403 kts | 150° |
| 2026-05-05 19:58 | 47.30784 | 9.22557 | 16188 ft | 402 kts | 159° |
| 2026-05-05 19:58 | 47.28124 | 9.23857 | 16572 ft | 402 kts | 169° |
| 2026-05-05 19:58 | 47.25401 | 9.24611 | 16971 ft | 402 kts | 173° |
| 2026-05-05 19:59 | 47.22612 | 9.25293 | 17437 ft | 403 kts | 173° |
| 2026-05-05 19:59 | 47.19868 | 9.25976 | 17823 ft | 405 kts | 173° |
| 2026-05-05 19:59 | 47.17075 | 9.26685 | 18177 ft | 408 kts | 172° |
| 2026-05-05 19:59 | 47.14308 | 9.27396 | 18544 ft | 409 kts | 172° |
| 2026-05-05 20:00 | 47.11494 | 9.28125 | 18921 ft | 411 kts | 172° |
| 2026-05-05 20:00 | 47.08676 | 9.28974 | 19249 ft | 415 kts | 167° |
| 2026-05-05 20:00 | 47.05950 | 9.30385 | 19582 ft | 420 kts | 159° |
| 2026-05-05 20:00 | 47.03352 | 9.32407 | 19870 ft | 427 kts | 150° |
| 2026-05-05 20:01 | 47.00965 | 9.35018 | 20194 ft | 432 kts | 142° |
| 2026-05-05 20:01 | 46.98732 | 9.37958 | 20559 ft | 433 kts | 141° |
| 2026-05-05 20:01 | 46.96493 | 9.40944 | 20851 ft | 435 kts | 141° |
| 2026-05-05 20:01 | 46.94264 | 9.43905 | 21123 ft | 437 kts | 141° |
| 2026-05-05 20:02 | 46.91999 | 9.46902 | 21440 ft | 438 kts | 141° |
| 2026-05-05 20:02 | 46.89759 | 9.49858 | 21743 ft | 439 kts | 141° |
| 2026-05-05 20:02 | 46.87492 | 9.52841 | 22040 ft | 441 kts | 142° |
| 2026-05-05 20:02 | 46.85217 | 9.55829 | 22353 ft | 442 kts | 141° |
| 2026-05-05 20:03 | 46.82924 | 9.58835 | 22656 ft | 443 kts | 142° |
| 2026-05-05 20:03 | 46.80642 | 9.61822 | 22941 ft | 444 kts | 142° |
| 2026-05-05 20:03 | 46.78337 | 9.64834 | 23209 ft | 445 kts | 142° |
| 2026-05-05 20:03 | 46.76063 | 9.67801 | 23458 ft | 447 kts | 142° |
| 2026-05-05 20:04 | 46.73724 | 9.70848 | 23686 ft | 449 kts | 143° |
| 2026-05-05 20:04 | 46.71419 | 9.73848 | 23893 ft | 450 kts | 143° |
| 2026-05-05 20:04 | 46.69054 | 9.76921 | 24053 ft | 453 kts | 143° |
| 2026-05-05 20:04 | 46.66715 | 9.79957 | 24252 ft | 455 kts | 143° |
| 2026-05-05 20:05 | 46.64373 | 9.82993 | 24458 ft | 456 kts | 143° |
| 2026-05-05 20:05 | 46.61988 | 9.86082 | 24658 ft | 458 kts | 143° |
| 2026-05-05 20:05 | 46.59594 | 9.89177 | 24841 ft | 459 kts | 143° |
| 2026-05-05 20:05 | 46.57225 | 9.92238 | 25026 ft | 460 kts | 143° |
| 2026-05-05 20:06 | 46.54832 | 9.95325 | 25220 ft | 461 kts | 143° |
| 2026-05-05 20:06 | 46.52422 | 9.98429 | 25391 ft | 463 kts | 143° |
| 2026-05-05 20:06 | 46.50050 | 10.01482 | 25525 ft | 464 kts | 143° |
| 2026-05-05 20:06 | 46.47760 | 10.04833 | 25662 ft | 471 kts | 135° |
| 2026-05-05 20:07 | 46.45778 | 10.08666 | 25842 ft | 476 kts | 129° |
| 2026-05-05 20:07 | 46.43932 | 10.12636 | 25968 ft | 478 kts | 129° |
| 2026-05-05 20:07 | 46.42080 | 10.16639 | 26022 ft | 481 kts | 129° |
| 2026-05-05 20:07 | 46.40191 | 10.20711 | 26119 ft | 483 kts | 129° |
| 2026-05-05 20:08 | 46.38325 | 10.24725 | 26282 ft | 484 kts | 129° |
| 2026-05-05 20:08 | 46.36435 | 10.28781 | 26472 ft | 483 kts | 129° |
| 2026-05-05 20:08 | 46.34555 | 10.32806 | 26571 ft | 484 kts | 129° |
| 2026-05-05 20:08 | 46.32661 | 10.36851 | 26627 ft | 487 kts | 129° |
| 2026-05-05 20:09 | 46.30754 | 10.40917 | 26705 ft | 488 kts | 129° |
| 2026-05-05 20:09 | 46.28860 | 10.44949 | 26812 ft | 490 kts | 129° |
| 2026-05-05 20:09 | 46.26954 | 10.48999 | 26910 ft | 490 kts | 129° |
| 2026-05-05 20:09 | 46.25030 | 10.53082 | 27018 ft | 491 kts | 129° |
| 2026-05-05 20:10 | 46.23100 | 10.57173 | 27113 ft | 492 kts | 129° |
| 2026-05-05 20:10 | 46.21166 | 10.61263 | 27192 ft | 493 kts | 129° |
| 2026-05-05 20:10 | 46.19247 | 10.65317 | 27295 ft | 494 kts | 130° |
| 2026-05-05 20:10 | 46.17303 | 10.69416 | 27342 ft | 496 kts | 130° |
| 2026-05-05 20:11 | 46.15355 | 10.73518 | 27423 ft | 496 kts | 129° |
| 2026-05-05 20:11 | 46.13413 | 10.77603 | 27530 ft | 496 kts | 130° |
| 2026-05-05 20:11 | 46.11442 | 10.81741 | 27580 ft | 497 kts | 130° |
| 2026-05-05 20:11 | 46.09492 | 10.85831 | 27639 ft | 498 kts | 130° |
| 2026-05-05 20:12 | 46.07531 | 10.89935 | 27734 ft | 499 kts | 129° |
| 2026-05-05 20:12 | 46.05577 | 10.94019 | 27765 ft | 500 kts | 129° |
| 2026-05-05 20:12 | 46.03613 | 10.98118 | 27801 ft | 501 kts | 130° |
| 2026-05-05 20:12 | 46.01610 | 11.02295 | 27909 ft | 501 kts | 130° |
| 2026-05-05 20:13 | 45.99662 | 11.06351 | 28041 ft | 500 kts | 130° |
| 2026-05-05 20:13 | 45.95663 | 11.14654 | 28073 ft | 504 kts | 129° |
| 2026-05-05 20:14 | 45.91676 | 11.22909 | 28194 ft | 505 kts | 129° |
| 2026-05-05 20:14 | 45.87685 | 11.31150 | 28341 ft | 506 kts | 129° |
| 2026-05-05 20:14 | 45.85676 | 11.35290 | 28451 ft | 505 kts | 129° |
| 2026-05-05 20:15 | 45.83668 | 11.39419 | 28473 ft | 507 kts | 129° |
| 2026-05-05 20:15 | 45.79608 | 11.47752 | 28537 ft | 509 kts | 129° |
| 2026-05-05 20:16 | 45.75574 | 11.56008 | 28658 ft | 510 kts | 129° |
| 2026-05-05 20:16 | 45.71502 | 11.64317 | 28771 ft | 512 kts | 129° |
| 2026-05-05 20:17 | 45.67422 | 11.72617 | 28813 ft | 514 kts | 130° |
| 2026-05-05 20:17 | 45.63312 | 11.80956 | 28891 ft | 515 kts | 130° |
| 2026-05-05 20:18 | 45.59164 | 11.89345 | 28972 ft | 516 kts | 130° |
| 2026-05-05 20:18 | 45.55032 | 11.97677 | 28996 ft | 518 kts | 130° |
| 2026-05-05 20:19 | 45.50876 | 12.06035 | 29075 ft | 518 kts | 130° |
| 2026-05-05 20:19 | 45.46714 | 12.14380 | 29233 ft | 517 kts | 129° |
| 2026-05-05 20:20 | 45.42551 | 12.22701 | 29282 ft | 518 kts | 129° |
| 2026-05-05 20:20 | 45.38370 | 12.31035 | 29338 ft | 519 kts | 129° |
| 2026-05-05 20:21 | 45.34152 | 12.39416 | 29348 ft | 522 kts | 129° |
| 2026-05-05 20:21 | 45.29944 | 12.47757 | 29525 ft | 520 kts | 129° |
| 2026-05-05 20:22 | 45.25740 | 12.56060 | 29622 ft | 520 kts | 129° |
| 2026-05-05 20:22 | 45.21521 | 12.64371 | 29639 ft | 522 kts | 129° |
| 2026-05-05 20:23 | 45.17286 | 12.72690 | 29702 ft | 522 kts | 130° |
| 2026-05-05 20:23 | 45.13042 | 12.81001 | 29754 ft | 522 kts | 130° |
| 2026-05-05 20:24 | 45.08786 | 12.89312 | 29775 ft | 523 kts | 130° |
| 2026-05-05 20:24 | 45.04512 | 12.97634 | 29797 ft | 524 kts | 130° |
| 2026-05-05 20:25 | 45.00243 | 13.05920 | 29815 ft | 525 kts | 130° |
| 2026-05-05 20:25 | 44.95323 | 13.13442 | 29828 ft | 520 kts | 140° |
| 2026-05-05 20:26 | 44.90144 | 13.20466 | 29971 ft | 518 kts | 140° |
| 2026-05-05 20:26 | 44.84926 | 13.27498 | 29987 ft | 520 kts | 140° |
| 2026-05-05 20:27 | 44.79699 | 13.34514 | 30005 ft | 521 kts | 140° |
| 2026-05-05 20:27 | 44.74432 | 13.41559 | 30084 ft | 521 kts | 140° |
| 2026-05-05 20:28 | 44.69179 | 13.48567 | 30218 ft | 520 kts | 140° |
| 2026-05-05 20:28 | 44.63947 | 13.55523 | 30256 ft | 520 kts | 140° |
| 2026-05-05 20:29 | 44.58715 | 13.62462 | 30314 ft | 521 kts | 140° |
| 2026-05-05 20:29 | 44.53449 | 13.69426 | 30318 ft | 522 kts | 141° |
| 2026-05-05 20:30 | 44.48145 | 13.76423 | 30340 ft | 523 kts | 141° |
| 2026-05-05 20:30 | 44.42869 | 13.83364 | 30374 ft | 523 kts | 141° |
| 2026-05-05 20:31 | 44.37604 | 13.90273 | 30394 ft | 524 kts | 141° |
| 2026-05-05 20:31 | 44.32283 | 13.97237 | 30490 ft | 522 kts | 141° |
| 2026-05-05 20:32 | 44.26999 | 14.04134 | 30535 ft | 523 kts | 141° |
| 2026-05-05 20:32 | 44.21690 | 14.11046 | 30546 ft | 524 kts | 140° |
| 2026-05-05 20:33 | 44.16370 | 14.17955 | 30580 ft | 524 kts | 140° |
| 2026-05-05 20:33 | 44.11050 | 14.24846 | 30601 ft | 525 kts | 141° |
| 2026-05-05 20:34 | 44.05712 | 14.31741 | 30622 ft | 525 kts | 140° |
| 2026-05-05 20:34 | 44.00373 | 14.38622 | 30667 ft | 525 kts | 140° |
| 2026-05-05 20:35 | 43.95025 | 14.45496 | 30711 ft | 526 kts | 140° |
| 2026-05-05 20:35 | 43.89667 | 14.52365 | 30743 ft | 526 kts | 140° |
| 2026-05-05 20:36 | 43.84283 | 14.59249 | 30802 ft | 526 kts | 140° |
| 2026-05-05 20:36 | 43.78939 | 14.66065 | 30840 ft | 526 kts | 141° |
| 2026-05-05 20:37 | 43.73548 | 14.72922 | 30841 ft | 527 kts | 141° |
| 2026-05-05 20:37 | 43.68156 | 14.79766 | 30870 ft | 527 kts | 141° |
| 2026-05-05 20:38 | 43.62775 | 14.86576 | 30880 ft | 527 kts | 141° |
| 2026-05-05 20:38 | 43.57391 | 14.93373 | 30900 ft | 527 kts | 141° |
| 2026-05-05 20:39 | 43.52066 | 15.00344 | 30902 ft | 529 kts | 136° |
| 2026-05-05 20:39 | 43.47073 | 15.07758 | 30911 ft | 530 kts | 135° |
| 2026-05-05 20:40 | 43.42056 | 15.15164 | 30945 ft | 530 kts | 135° |
| 2026-05-05 20:40 | 43.37005 | 15.22562 | 30967 ft | 530 kts | 135° |
| 2026-05-05 20:41 | 43.31974 | 15.29892 | 30993 ft | 531 kts | 135° |
| 2026-05-05 20:41 | 43.26905 | 15.37248 | 31047 ft | 530 kts | 135° |
| 2026-05-05 20:42 | 43.21835 | 15.44578 | 31063 ft | 531 kts | 135° |
| 2026-05-05 20:42 | 43.16773 | 15.51875 | 31081 ft | 532 kts | 135° |
| 2026-05-05 20:43 | 43.11691 | 15.59181 | 31108 ft | 532 kts | 136° |
| 2026-05-05 20:43 | 43.06590 | 15.66493 | 31171 ft | 531 kts | 136° |
| 2026-05-05 20:44 | 43.01512 | 15.73752 | 31167 ft | 532 kts | 136° |
| 2026-05-05 20:44 | 42.96382 | 15.81067 | 31167 ft | 532 kts | 136° |
| 2026-05-05 20:45 | 42.88727 | 15.91947 | 31173 ft | 533 kts | 136° |
| 2026-05-05 20:45 | 42.83575 | 15.99246 | 31169 ft | 534 kts | 136° |
| 2026-05-05 20:46 | 42.78439 | 16.06505 | 31177 ft | 534 kts | 136° |
| 2026-05-05 20:46 | 42.73302 | 16.13746 | 31185 ft | 534 kts | 136° |
| 2026-05-05 20:47 | 42.68137 | 16.21008 | 31207 ft | 535 kts | 136° |
| 2026-05-05 20:47 | 42.62994 | 16.28220 | 31236 ft | 535 kts | 136° |
| 2026-05-05 20:48 | 42.57812 | 16.35469 | 31265 ft | 535 kts | 136° |
| 2026-05-05 20:48 | 42.52663 | 16.42654 | 31420 ft | 532 kts | 136° |
| 2026-05-05 20:49 | 42.47512 | 16.49822 | 31453 ft | 532 kts | 136° |
| 2026-05-05 20:49 | 42.42351 | 16.56988 | 31507 ft | 532 kts | 136° |
| 2026-05-05 20:50 | 42.38062 | 16.62927 | 31538 ft | 532 kts | 136° |
| 2026-05-05 20:50 | 42.32023 | 16.71271 | 31554 ft | 532 kts | 136° |
| 2026-05-05 20:51 | 42.26848 | 16.78402 | 31555 ft | 532 kts | 136° |
| 2026-05-05 20:51 | 42.21664 | 16.85526 | 31572 ft | 532 kts | 136° |
| 2026-05-05 20:52 | 42.16500 | 16.92607 | 31591 ft | 532 kts | 136° |
| 2026-05-05 20:52 | 42.11322 | 16.99689 | 31632 ft | 532 kts | 136° |
| 2026-05-05 20:53 | 42.06132 | 17.06769 | 31676 ft | 531 kts | 136° |
| 2026-05-05 20:53 | 42.00961 | 17.13807 | 31693 ft | 531 kts | 136° |
| 2026-05-05 20:54 | 41.95786 | 17.20833 | 31714 ft | 531 kts | 136° |
| 2026-05-05 20:54 | 41.90049 | 17.26950 | 31729 ft | 526 kts | 150° |
| 2026-05-05 20:55 | 41.83811 | 17.32059 | 31732 ft | 526 kts | 151° |
| 2026-05-05 20:55 | 41.77584 | 17.37096 | 31715 ft | 526 kts | 151° |
| 2026-05-05 20:56 | 41.71310 | 17.42148 | 31710 ft | 526 kts | 151° |
| 2026-05-05 20:56 | 41.65078 | 17.47149 | 31725 ft | 526 kts | 151° |
| 2026-05-05 20:57 | 41.58779 | 17.52188 | 31741 ft | 526 kts | 151° |
| 2026-05-05 20:57 | 41.52541 | 17.57165 | 31763 ft | 526 kts | 151° |
| 2026-05-05 20:58 | 41.46268 | 17.62159 | 31785 ft | 526 kts | 151° |
| 2026-05-05 20:58 | 41.39996 | 17.67139 | 31797 ft | 526 kts | 152° |
| 2026-05-05 20:59 | 41.33727 | 17.72105 | 31803 ft | 526 kts | 151° |
| 2026-05-05 20:59 | 41.27446 | 17.77069 | 31803 ft | 526 kts | 152° |
| 2026-05-05 21:00 | 41.21167 | 17.82020 | 31816 ft | 526 kts | 151° |
| 2026-05-05 21:00 | 41.14887 | 17.86961 | 31824 ft | 526 kts | 151° |
| 2026-05-05 21:01 | 41.08603 | 17.91894 | 31841 ft | 526 kts | 151° |
| 2026-05-05 21:01 | 41.02344 | 17.96796 | 31855 ft | 526 kts | 151° |
| 2026-05-05 21:02 | 40.96058 | 18.01708 | 31871 ft | 526 kts | 151° |
| 2026-05-05 21:02 | 40.89778 | 18.06605 | 31899 ft | 526 kts | 151° |
| 2026-05-05 21:03 | 40.83501 | 18.11488 | 31884 ft | 525 kts | 151° |
| 2026-05-05 21:03 | 40.77182 | 18.16393 | 31876 ft | 525 kts | 151° |
| 2026-05-05 21:04 | 40.70907 | 18.21254 | 31876 ft | 525 kts | 151° |
| 2026-05-05 21:04 | 40.64615 | 18.26117 | 31873 ft | 525 kts | 151° |
| 2026-05-05 21:05 | 40.58383 | 18.31036 | 31863 ft | 526 kts | 147° |
| 2026-05-05 21:05 | 40.52385 | 18.36546 | 31887 ft | 525 kts | 146° |
| 2026-05-05 21:06 | 40.46438 | 18.41999 | 31898 ft | 525 kts | 146° |
| 2026-05-05 21:06 | 40.40448 | 18.47452 | 31907 ft | 525 kts | 146° |
| 2026-05-05 21:07 | 40.34407 | 18.52920 | 31920 ft | 525 kts | 146° |
| 2026-05-05 21:07 | 40.28405 | 18.58333 | 31945 ft | 525 kts | 147° |
| 2026-05-05 21:08 | 40.22446 | 18.63689 | 31958 ft | 524 kts | 147° |
| 2026-05-05 21:08 | 40.16408 | 18.69103 | 31969 ft | 524 kts | 147° |
| 2026-05-05 21:09 | 40.10394 | 18.74481 | 31965 ft | 524 kts | 147° |
| 2026-05-05 21:09 | 40.04387 | 18.79839 | 31965 ft | 524 kts | 147° |
| 2026-05-05 21:10 | 39.98391 | 18.85176 | 31961 ft | 523 kts | 147° |
| 2026-05-05 21:10 | 39.92388 | 18.90507 | 31988 ft | 523 kts | 147° |
| 2026-05-05 21:11 | 39.86383 | 18.95828 | 31991 ft | 523 kts | 147° |
| 2026-05-05 21:11 | 39.80822 | 19.01833 | 31994 ft | 524 kts | 131° |
| 2026-05-05 21:12 | 39.76423 | 19.09325 | 31992 ft | 523 kts | 125° |
| 2026-05-05 21:12 | 39.72182 | 19.16940 | 32010 ft | 522 kts | 125° |
| 2026-05-05 21:13 | 39.67920 | 19.24561 | 32010 ft | 522 kts | 125° |
| 2026-05-05 21:13 | 39.63650 | 19.32169 | 32029 ft | 522 kts | 125° |
| 2026-05-05 21:14 | 39.59376 | 19.39762 | 32048 ft | 522 kts | 125° |
| 2026-05-05 21:14 | 39.55113 | 19.47313 | 32071 ft | 521 kts | 125° |
| 2026-05-05 21:15 | 39.50850 | 19.54847 | 32094 ft | 521 kts | 125° |
| 2026-05-05 21:15 | 39.46560 | 19.62410 | 32129 ft | 521 kts | 125° |
| 2026-05-05 21:16 | 39.42280 | 19.69935 | 32127 ft | 520 kts | 126° |
| 2026-05-05 21:16 | 39.38018 | 19.77412 | 32138 ft | 520 kts | 126° |
| 2026-05-05 21:17 | 39.33728 | 19.84919 | 32164 ft | 520 kts | 126° |
| 2026-05-05 21:17 | 39.29426 | 19.92430 | 32157 ft | 519 kts | 126° |
| 2026-05-05 21:18 | 39.25155 | 19.99871 | 32171 ft | 519 kts | 126° |
| 2026-05-05 21:18 | 39.20872 | 20.07314 | 32188 ft | 518 kts | 126° |
| 2026-05-05 21:19 | 39.16587 | 20.14743 | 32206 ft | 518 kts | 126° |
| 2026-05-05 21:19 | 39.12284 | 20.22185 | 32220 ft | 517 kts | 125° |
| 2026-05-05 21:20 | 39.08035 | 20.29598 | 32238 ft | 517 kts | 125° |
| 2026-05-05 21:20 | 39.03779 | 20.37032 | 32265 ft | 516 kts | 125° |
| 2026-05-05 21:21 | 38.99547 | 20.44404 | 32297 ft | 516 kts | 125° |
| 2026-05-05 21:21 | 38.95284 | 20.51813 | 32327 ft | 515 kts | 125° |
| 2026-05-05 21:22 | 38.91042 | 20.59165 | 32361 ft | 514 kts | 125° |
| 2026-05-05 21:22 | 38.86776 | 20.66540 | 32371 ft | 514 kts | 126° |
| 2026-05-05 21:23 | 38.82469 | 20.73852 | 32355 ft | 513 kts | 126° |
| 2026-05-05 21:23 | 38.78182 | 20.81104 | 32345 ft | 513 kts | 126° |
| 2026-05-05 21:24 | 38.73889 | 20.88352 | 32339 ft | 512 kts | 126° |
| 2026-05-05 21:24 | 38.69587 | 20.95601 | 32339 ft | 512 kts | 126° |
| 2026-05-05 21:25 | 38.65304 | 21.02804 | 32335 ft | 511 kts | 126° |
| 2026-05-05 21:25 | 38.61005 | 21.10019 | 32338 ft | 511 kts | 126° |
| 2026-05-05 21:26 | 38.56692 | 21.17240 | 32342 ft | 510 kts | 126° |
| 2026-05-05 21:26 | 38.52414 | 21.24388 | 32352 ft | 510 kts | 126° |
| 2026-05-05 21:27 | 38.48106 | 21.31569 | 32364 ft | 510 kts | 126° |
| 2026-05-05 21:27 | 38.43796 | 21.38738 | 32379 ft | 509 kts | 126° |
| 2026-05-05 21:28 | 38.39515 | 21.45843 | 32398 ft | 509 kts | 126° |
| 2026-05-05 21:28 | 38.35206 | 21.52980 | 32418 ft | 508 kts | 126° |
| 2026-05-05 21:29 | 38.30915 | 21.60071 | 32445 ft | 507 kts | 126° |
| 2026-05-05 21:29 | 38.26591 | 21.67199 | 32461 ft | 507 kts | 127° |
| 2026-05-05 21:30 | 38.22308 | 21.74247 | 32467 ft | 506 kts | 127° |
| 2026-05-05 21:30 | 38.18000 | 21.81319 | 32474 ft | 505 kts | 126° |
| 2026-05-05 21:31 | 38.13723 | 21.88325 | 32488 ft | 505 kts | 127° |
| 2026-05-05 21:31 | 38.09425 | 21.95352 | 32482 ft | 504 kts | 126° |
| 2026-05-05 21:32 | 38.05123 | 22.02369 | 32475 ft | 503 kts | 126° |
| 2026-05-05 21:32 | 38.00840 | 22.09341 | 32496 ft | 503 kts | 127° |
| 2026-05-05 21:33 | 37.96546 | 22.16315 | 32506 ft | 502 kts | 127° |
| 2026-05-05 21:33 | 37.92250 | 22.23279 | 32501 ft | 502 kts | 126° |
| 2026-05-05 21:34 | 37.87960 | 22.30218 | 32484 ft | 502 kts | 126° |
| 2026-05-05 21:34 | 37.83670 | 22.37140 | 32472 ft | 501 kts | 126° |
| 2026-05-05 21:35 | 37.79365 | 22.44074 | 32468 ft | 501 kts | 126° |
| 2026-05-05 21:35 | 37.75080 | 22.50961 | 32465 ft | 500 kts | 126° |
| 2026-05-05 21:36 | 37.70894 | 22.57938 | 32460 ft | 497 kts | 119° |
| 2026-05-05 21:36 | 37.67877 | 22.65675 | 32450 ft | 493 kts | 111° |
| 2026-05-05 21:37 | 37.65092 | 22.73549 | 32437 ft | 492 kts | 111° |
| 2026-05-05 21:37 | 37.62287 | 22.81429 | 31715 ft | 500 kts | 111° |
| 2026-05-05 21:38 | 37.60841 | 22.85480 | 30702 ft | 515 kts | 111° |
| 2026-05-05 21:38 | 37.59355 | 22.89632 | 29640 ft | 529 kts | 111° |
| 2026-05-05 21:38 | 37.57843 | 22.93844 | 28976 ft | 534 kts | 112° |
| 2026-05-05 21:38 | 37.56450 | 22.98141 | 28788 ft | 526 kts | 104° |
| 2026-05-05 21:39 | 37.55555 | 23.02538 | 28671 ft | 515 kts | 95° |
| 2026-05-05 21:39 | 37.55172 | 23.06993 | 28453 ft | 506 kts | 86° |
| 2026-05-05 21:39 | 37.55303 | 23.11329 | 28148 ft | 498 kts | 77° |
| 2026-05-05 21:39 | 37.55942 | 23.15571 | 27849 ft | 489 kts | 68° |
| 2026-05-05 21:40 | 37.57075 | 23.19597 | 27528 ft | 481 kts | 59° |
| 2026-05-05 21:40 | 37.58624 | 23.23233 | 27270 ft | 472 kts | 50° |
| 2026-05-05 21:40 | 37.60565 | 23.26519 | 26983 ft | 464 kts | 42° |
| 2026-05-05 21:40 | 37.62811 | 23.29356 | 26729 ft | 455 kts | 34° |
| 2026-05-05 21:41 | 37.65187 | 23.32011 | 26417 ft | 458 kts | 39° |
| 2026-05-05 21:41 | 37.67295 | 23.35062 | 25543 ft | 464 kts | 48° |
| 2026-05-05 21:41 | 37.68993 | 23.38473 | 24646 ft | 462 kts | 55° |
| 2026-05-05 21:41 | 37.70327 | 23.42119 | 23737 ft | 462 kts | 65° |
| 2026-05-05 21:42 | 37.71185 | 23.46042 | 22752 ft | 464 kts | 75° |
| 2026-05-05 21:42 | 37.71522 | 23.50052 | 21756 ft | 466 kts | 85° |
| 2026-05-05 21:42 | 37.71337 | 23.54096 | 20754 ft | 467 kts | 95° |
| 2026-05-05 21:42 | 37.70625 | 23.58098 | 19749 ft | 466 kts | 104° |
| 2026-05-05 21:43 | 37.69422 | 23.61842 | 18759 ft | 465 kts | 115° |
| 2026-05-05 21:43 | 37.67814 | 23.65364 | 17770 ft | 461 kts | 120° |
| 2026-05-05 21:43 | 37.66162 | 23.68730 | 16804 ft | 456 kts | 120° |
| 2026-05-05 21:43 | 37.64497 | 23.72100 | 15834 ft | 450 kts | 120° |
| 2026-05-05 21:44 | 37.62868 | 23.75382 | 14854 ft | 443 kts | 120° |
| 2026-05-05 21:44 | 37.61131 | 23.78565 | 13915 ft | 438 kts | 128° |
| 2026-05-05 21:44 | 37.59050 | 23.81254 | 13172 ft | 427 kts | 139° |
| 2026-05-05 21:44 | 37.56674 | 23.83392 | 12451 ft | 417 kts | 149° |
| 2026-05-05 21:45 | 37.54066 | 23.84933 | 11721 ft | 408 kts | 160° |
| 2026-05-05 21:45 | 37.51346 | 23.85814 | 10997 ft | 399 kts | 171° |
| 2026-05-05 21:45 | 37.48626 | 23.86024 | 10273 ft | 391 kts | 183° |
| 2026-05-05 21:45 | 37.45967 | 23.85521 | 9541 ft | 384 kts | 197° |
| 2026-05-05 21:46 | 37.43544 | 23.84278 | 8807 ft | 376 kts | 211° |
| 2026-05-05 21:46 | 37.41482 | 23.82316 | 8065 ft | 368 kts | 228° |
| 2026-05-05 21:46 | 37.39994 | 23.79810 | 7328 ft | 358 kts | 245° |
| 2026-05-05 21:46 | 37.39189 | 23.76907 | 6582 ft | 349 kts | 264° |
| 2026-05-05 21:47 | 37.39200 | 23.73955 | 6019 ft | 334 kts | 284° |
| 2026-05-05 21:47 | 37.40024 | 23.71345 | 5532 ft | 319 kts | 306° |
| 2026-05-05 21:47 | 37.41528 | 23.69374 | 5354 ft | 305 kts | 326° |
| 2026-05-05 21:47 | 37.43383 | 23.68239 | 5276 ft | 290 kts | 345° |
| 2026-05-05 21:48 | 37.45322 | 23.67943 | 5232 ft | 276 kts | 3° |
| 2026-05-05 21:48 | 37.47171 | 23.68338 | 5163 ft | 264 kts | 13° |
| 2026-05-05 21:48 | 37.48933 | 23.68883 | 4911 ft | 261 kts | 13° |
| 2026-05-05 21:48 | 37.50717 | 23.69443 | 4553 ft | 262 kts | 13° |
| 2026-05-05 21:49 | 37.52465 | 23.69992 | 4228 ft | 261 kts | 13° |
| 2026-05-05 21:49 | 37.54247 | 23.70552 | 3914 ft | 261 kts | 13° |
| 2026-05-05 21:49 | 37.55980 | 23.71097 | 3595 ft | 260 kts | 13° |
| 2026-05-05 21:49 | 37.57748 | 23.71654 | 3269 ft | 260 kts | 13° |
| 2026-05-05 21:50 | 37.59495 | 23.72204 | 3002 ft | 257 kts | 13° |
| 2026-05-05 21:50 | 37.61243 | 23.72754 | 2977 ft | 260 kts | 13° |
| 2026-05-05 21:50 | 37.63000 | 23.73308 | 2972 ft | 259 kts | 13° |
| 2026-05-05 21:50 | 37.64764 | 23.73864 | 2970 ft | 260 kts | 13° |
| 2026-05-05 21:51 | 37.66505 | 23.74413 | 2970 ft | 260 kts | 13° |
| 2026-05-05 21:51 | 37.68270 | 23.74970 | 2972 ft | 260 kts | 13° |
| 2026-05-05 21:51 | 37.70038 | 23.75528 | 2972 ft | 260 kts | 13° |
| 2026-05-05 21:51 | 37.71734 | 23.76331 | 2973 ft | 261 kts | 26° |
| 2026-05-05 21:52 | 37.74884 | 23.78571 | 2969 ft | 260 kts | 30° |
| 2026-05-05 21:52 | 37.76439 | 23.79801 | 2972 ft | 261 kts | 32° |
| 2026-05-05 21:52 | 37.77937 | 23.81051 | 2978 ft | 261 kts | 33° |
| 2026-05-05 21:53 | 37.79433 | 23.82347 | 2984 ft | 260 kts | 34° |
| 2026-05-05 21:53 | 37.80909 | 23.83663 | 2983 ft | 259 kts | 34° |
| 2026-05-05 21:53 | 37.82361 | 23.84982 | 2798 ft | 255 kts | 35° |
| 2026-05-05 21:53 | 37.83752 | 23.86259 | 2476 ft | 237 kts | 35° |
| 2026-05-05 21:54 | 37.85042 | 23.87449 | 2181 ft | 224 kts | 36° |
| 2026-05-05 21:54 | 37.86258 | 23.88590 | 1898 ft | 211 kts | 36° |
| 2026-05-05 21:54 | 37.87397 | 23.89666 | 1626 ft | 199 kts | 37° |
| 2026-05-05 21:54 | 37.88471 | 23.90681 | 1354 ft | 184 kts | 37° |
| 2026-05-05 21:55 | 37.89447 | 23.91604 | 1125 ft | 171 kts | 36° |
| 2026-05-05 21:55 | 37.90388 | 23.92495 | 891 ft | 166 kts | 36° |
| 2026-05-05 21:55 | 37.91308 | 23.93353 | 655 ft | 166 kts | 36° |
| 2026-05-05 21:55 | 37.92224 | 23.94202 | 403 ft | 160 kts | 36° |
| 2026-05-05 21:56 | 37.93099 | 23.95037 | 295 ft | 148 kts | 36° |
| 2026-05-05 21:56 | 37.93803 | 23.95702 | 294 ft | 98 kts | 37° |
| 2026-05-05 21:56 | 37.94076 | 23.95947 | 295 ft | 33 kts | 28° |
| 2026-05-05 21:56 | 37.94260 | 23.96012 | 294 ft | 17 kts | 6° |
| 2026-05-05 21:57 | 37.94329 | 23.95976 | 294 ft | 10 kts | 294° |
| 2026-05-05 21:57 | 37.94354 | 23.95893 | 294 ft | 9 kts | 292° |
| 2026-05-05 21:57 | 37.94359 | 23.95818 | 294 ft | 8 kts | 242° |
| 2026-05-05 21:57 | 37.94316 | 23.95770 | 294 ft | 9 kts | 216° |
| 2026-05-05 21:58 | 37.94247 | 23.95706 | 294 ft | 14 kts | 217° |
| 2026-05-05 21:58 | 37.94153 | 23.95615 | 294 ft | 19 kts | 217° |
| 2026-05-05 21:58 | 37.94035 | 23.95504 | 294 ft | 22 kts | 217° |
| 2026-05-05 21:58 | 37.93910 | 23.95365 | 294 ft | 23 kts | 234° |
| 2026-05-05 21:59 | 37.93829 | 23.95194 | 294 ft | 21 kts | 227° |
| 2026-05-05 21:59 | 37.93694 | 23.95060 | 294 ft | 27 kts | 217° |
| 2026-05-05 21:59 | 37.93552 | 23.94922 | 294 ft | 24 kts | 218° |
| 2026-05-05 21:59 | 37.93434 | 23.94808 | 294 ft | 10 kts | 229° |
| 2026-05-05 22:00 | 37.93442 | 23.94733 | 294 ft | 8 kts | 304° |
| 2026-05-05 22:00 | 37.93456 | 23.94710 | 294 ft | 0 kts | 307° |